Domov               UVHVVR             MKGP            O straneh              
ZDRAVSTVENO VARSTVO RASTLIN
  MREŽA AGROMET. POSTAJ
 ► PROGNOSTIČNA OBVESTILA
AGROMETEOROLOŠKI PODATKI -
ARSO
OBVLADOVANJE TVEGANJ ZARADI
NEUGODNIH VREMENSKIH RAZMER
  ► NARAVNE NESREČE
  ► SUŠA/MOČA
  ► NAMAKANJE
  ► ŽLED (gozdarstvo)
KARTOGRAFSKI PRIKAZI
SPLETNE POVEZAVE
PROJEKTI IN PUBLIKACIJE

AGROMETEOROLOŠKA MREŽA: VREMENSKE POSTAJE IN FENOLOŠKA OPAZOVANJA

Pregled podatkov za lokacijo Sremič, meteorološka postaja 49592

Pregled senzorjev na lokaciji

ID Ime Zadnja
vrednost
Datum in čas
zadnje
spremembe
(Lokalni čas)
Tip
senzorja
3947 Omočenost lista (U) 10 U 27.1.2020 02:00 A730WET
3948 Padavine (mm) 0 mm 27.1.2020 02:00 Generic 0.2 mm
3945 Relativna vlaga 2 m (% RH) 100 % RH 27.1.2020 02:00 Generic 0 - 100 %
3946 Temperatura 2 m (°C) -0.01 °C 27.1.2020 02:00 Generic -40 - +60 °C

Pregled podatkov zadnjih 24 ur

Zap.
št.
Datum in čas
(Centralno
evropski čas)
Sremič
Omočenost
lista
Padavine Relativna
vlaga
2
m
Temperatura
2
m
1 27.1.2020 02:00 10 0 100 0
2 27.1.2020 01:30 10 0 100 -0.2
3 27.1.2020 01:00 10 0 100 0
4 27.1.2020 00:30 10 0 100 0.2
5 27.1.2020 00:00 10 0 100 0.4
6 26.1.2020 23:30 10 0 100 0.3
7 26.1.2020 23:00 10 0 100 0.4
8 26.1.2020 22:30 10 0 100 0.3
9 26.1.2020 22:00 10 0 100 0.3
10 26.1.2020 21:30 10 0 100 0.5
11 26.1.2020 21:00 10 0 100 0.4
12 26.1.2020 20:30 10 0 100 0.3
13 26.1.2020 20:00 10 0 100 0.2
14 26.1.2020 19:30 10 0 100 1
15 26.1.2020 19:00 10 0 98.3 2.4
16 26.1.2020 18:30 10 0 97.8 2.7
17 26.1.2020 18:00 10 0 100 2.6
18 26.1.2020 17:30 10 0 100 2.3
19 26.1.2020 17:00 9 0 98.6 1.2
20 26.1.2020 16:30 1 0 89.9 3.6
21 26.1.2020 16:00 0 0 93.3 3.7
22 26.1.2020 15:30 2 0 99.4 2.4
23 26.1.2020 15:00 0 0 92.9 2.8
24 26.1.2020 14:30 0 0 91.5 4.8
25 26.1.2020 14:00 0 0 100 1.7
26 26.1.2020 13:30 0 0 91.3 2.9
27 26.1.2020 13:00 0 0 93.1 4.6
28 26.1.2020 12:30 0 0 98.4 3.4
29 26.1.2020 12:00 0 0 98.5 2.1
30 26.1.2020 11:30 0 0 92.4 3.7
31 26.1.2020 11:00 0 0 96.5 3.4
32 26.1.2020 10:30 3 0 98.6 3.6
33 26.1.2020 10:00 10 0.2 100 4.3
34 26.1.2020 09:30 9 0 99.9 3.7
35 26.1.2020 09:00 10 0 100 3.6
36 26.1.2020 08:30 10 0 100 3.1
37 26.1.2020 08:00 10 0 99.8 2.9
38 26.1.2020 07:30 10 0 99 3
39 26.1.2020 07:00 10 0 97.8 3.5
40 26.1.2020 06:30 10 0 97.4 3.7
41 26.1.2020 06:00 10 0 96.9 3.1
42 26.1.2020 05:30 10 0 95.7 3.4
43 26.1.2020 05:00 10 0 96.1 3.6
44 26.1.2020 04:30 10 0 94.9 4.2
45 26.1.2020 04:00 10 0 94.3 4.5
46 26.1.2020 03:30 10 0 91.8 4.7
47 26.1.2020 03:00 10 0 90.8 5
48 26.1.2020 02:30 10 0 90.3 5
© 2011 Ministrstvo za kmetijstvo, gozdarstvo in prehrano. Vse pravice pridržane.